Pagrindinis puslapis
METAR-TAF:

METAR-TAF

Oro uostai :

Ruby, Aliaska, Jungtinės Amerikos Valstijos

platuma: 64-43-38N, ilguma: 155-28-12W, Aukštis: 201 m

Dabartinis oras

Ataskaita buvo paskelbta 59 minutes, ne 03:56 UTC
Vėjas 7 kt iš Rytų
Temperatūra -22°C
Drėgmė 64%
Slėgis 1019 hPa
Matomumas: 16.1 km
Giedras dangus

METAR: PARY 290356Z AUTO 08007KT 10SM CLR M22/M27 A3010 RMK AO2 SLP224 T12221272 FZRANO

Laikas: 19:55 (04:55 UTC)


TAF: trūkstamas

Orai ataskaitas ir orų prognozės (METAR, TAF).

turimą stotys yra geltonos ir raudonos taškus žemėlapyje.

Perkelti pele per norėdami pamatyti stoties vardą.

Tada spustelėkite, norėdami matyti oro stebėjimo ir prognozės.

Norėdami pakeisti žemėlapį: spustelėkite ant žalios mygtukų su juodo kryžiaus žemyn,; žalią mygtuką su brūkšneliu, jei norite nutolinti; arba žalių rodyklių gretimoms žemėlapius.


METAR-TAF: